Nearby METAR Reports

 

KSEE - San Diego/Santee, California, USA
Distance from station: E 4mi, 6km
Updated: 03/18/2019 11:47am
Clear
Clear
 Wind from calm
Wind: Calm
Temperature: 70°F , 21°C
Dew Point: 50°F , 10°C
Humidity: 50%
Barometer: 30.00 inHg , 1015.9 hPa
Clouds: Clear
Visibility: 10 miles , 16 km
2019/03/18 18:47 KSEE 181847Z 000000KT 10SM SKC 21/10 A3000
KMYF - San Diego/Mntgmy, California, USA
Distance from station: W 6mi, 10km
Updated: 03/18/2019 11:53am
Clear
Clear
 Wind from SW
Wind: SW 9 mph , 15 km/h
Temperature: 70°F , 21°C
Dew Point: 46°F , 8°C
Humidity: 43%
Barometer: 30.01 inHg , 1016.3 hPa
Clouds: Clear
Visibility: 10 miles , 16 km
2019/03/18 18:53 KMYF 181853Z 23008KT 10SM CLR 21/08 A3001 RMK AO2 SLP157 T02060078
 
KNKX - Miramar Nas/San, California, USA
Distance from station: WNW 7mi, 11km
Updated: 03/18/2019 11:55am
Clear
Clear
 Wind from WSW
Wind: WSW 8 mph , 13 km/h
Temperature: 73°F , 23°C
Dew Point: 50°F , 10°C
Humidity: 44%
Barometer: 30.00 inHg , 1015.9 hPa
Clouds: Clear
Visibility: 10 miles , 16 km
2019/03/18 18:55 KNKX 181855Z 24007KT 10SM CLR 23/10 A3000 RMK AO2 SLP153 T02330100 $
KSAN - San Diego, California, USA
Distance from station: WSW 11mi, 17km
Updated: 03/18/2019 11:51am
Few Clouds
Few Clouds
 Wind from S
Wind: S 9 mph , 15 km/h
Temperature: 64°F , 18°C
Dew Point: 54°F , 12°C
Humidity: 68%
Barometer: 30.03 inHg , 1016.9 hPa
Clouds: Few Clouds
Visibility: 10 miles , 16 km
Cloud details: Few Clouds 4000 ft
Few Clouds 25000 ft
2019/03/18 18:51 KSAN 181851Z 19008KT 10SM FEW040 FEW250 18/12 A3003 RMK AO2 SLP167 T01780117
 
KNZY - North Island Nas, California, USA
Distance from station: SW 13mi, 22km
Updated: 03/18/2019 11:52am
Clear
Clear
 Wind from SSW
Wind: SSW 7 mph , 11 km/h
Temperature: 66°F , 19°C
Dew Point: 55°F , 13°C
Humidity: 68%
Barometer: 30.01 inHg , 1016.3 hPa
Clouds: Clear
Visibility: 10 miles , 16 km
2019/03/18 18:52 KNZY 181852Z 20006KT 10SM CLR 19/13 A3001 RMK AO2 SLP161 T01890133 $
KRNM - Ramona, California, USA
Distance from station: NNE 16mi, 26km
Updated: 03/18/2019 11:53am
Few Clouds
Few Clouds
 Wind from W
Wind: W 16 mph , 26 km/h
Temperature: 73°F , 23°C
Dew Point: 48°F , 9°C
Humidity: 41%
Barometer: 30.00 inHg , 1015.9 hPa
Clouds: Few Clouds
Visibility: 10 miles , 16 km
Cloud details: Few Clouds 3500 ft
2019/03/18 18:53 KRNM 181853Z 28014KT 10SM FEW035 23/09 A3000 RMK AO2 SLP149 T02280094
 
KSDM - San Diego/Brown, California, USA
Distance from station: S 16mi, 26km
Updated: 03/18/2019 11:53am
Clear
Clear
 Wind from W
Wind: W 8 mph , 13 km/h
Temperature: 72°F , 22°C
Dew Point: 50°F , 10°C
Humidity: 47%
Barometer: 30.00 inHg , 1015.9 hPa
Clouds: Clear
Visibility: 10 miles , 16 km
2019/03/18 18:53 KSDM 181853Z 26007KT 10SM CLR 22/10 A3000 RMK AO2 SLP155 T02170100
KNRS - Imperial Beach, California, USA
Distance from station: SSW 18mi, 29km
Updated: 03/18/2019 11:56am
Few Clouds
Few Clouds
 Wind from SW
Wind: SW 13 mph , 20 km/h
Temperature: 64°F , 18°C
Dew Point: 55°F , 13°C
Humidity: 73%
Barometer: 30.02 inHg , 1016.6 hPa
Clouds: Few Clouds
Visibility: 10 miles , 16 km
Cloud details: Few Clouds 1000 ft
Few Clouds 25000 ft
2019/03/18 18:56 KNRS 181856Z 22011KT 10SM FEW010 FEW250 18/13 A3002 RMK AO2 SLP165 T01830128 $
 
MMTJ - Tijuana Intl Arp, Mexico
Distance from station: S 20mi, 32km
Updated: 03/18/2019 11:48am
Clear
Clear
 Wind from WSW
Wind: WSW 7 mph , 11 km/h
Temperature: 72°F , 22°C
Dew Point: 46°F , 8°C
Humidity: 41%
Barometer: 30.02 inHg , 1016.6 hPa
Clouds: Clear
Visibility: 10 miles , 16 km
2019/03/18 18:48 MMTJ 181848Z 24006KT 10SM SKC 22/08 A3002 RMK HZY CU E
KCRQ - Carlsbad, California, USA
Distance from station: NW 26mi, 43km
Updated: 03/18/2019 11:53am
Clear
Clear
 Wind from WSW
Wind: WSW 8 mph , 13 km/h
Temperature: 66°F , 19°C
Dew Point: 48°F , 9°C
Humidity: 52%
Barometer: 29.99 inHg , 1015.6 hPa
Clouds: Clear
Visibility: 10 miles , 16 km
2019/03/18 18:53 KCRQ 181853Z 25007KT 10SM CLR 19/09 A2999 RMK AO2 SLP155 T01940094
 
KOKB - Oceanside, California, USA
Distance from station: NW 33mi, 54km
Updated: 03/18/2019 11:52am
Clear
Clear
 Wind from W
Wind: W 9 mph , 15 km/h
Temperature: 66°F , 19°C
Dew Point: 55°F , 13°C
Humidity: 68%
Barometer: 29.99 inHg , 1015.6 hPa
Clouds: Clear
Visibility: 10 miles , 16 km
2019/03/18 18:52 KOKB 181852Z AUTO 26008KT 10SM CLR 19/13 A2999 RMK AO2 SLP155 T01890128
KCZZ - Campo, California, USA
Distance from station: ESE 35mi, 56km
Updated: 03/18/2019 11:52am

 Wind from ENE
Wind: ENE 16 mph , 26 km/h, Gust: 24 mph , 39 km/h
Temperature: 73°F , 23°C
Dew Point: 37°F , 3°C
Humidity: 27%
Barometer: 29.98 inHg , 1015.2 hPa
2019/03/18 18:52 KCZZ 181852Z AUTO 06014G21KT 23/03 A2998 RMK AO1 SLP129 T02280033
 
KNFG - Camp Pendleton, California, USA
Distance from station: NNW 37mi, 59km
Updated: 03/18/2019 11:55am
Few Clouds
Few Clouds
 Wind from varies
Wind: varies 7 mph , 11 km/h
Temperature: 68°F , 20°C
Dew Point: 48°F , 9°C
Humidity: 49%
Barometer: 29.99 inHg , 1015.6 hPa
Clouds: Few Clouds
Visibility: 7 miles , 11 km
Cloud details: Few Clouds 2000 ft
2019/03/18 18:55 KNFG 181855Z VRB06KT 7SM FEW020 20/09 A2999 RMK AO2 SLP154 T02000094 $
KRIV - Riverside/March, California, USA
Distance from station: N 74mi, 119km
Updated: 03/18/2019 11:58am
Clear
Clear
 Wind from calm
Wind: Calm
Temperature: 75°F , 24°C
Dew Point: 39°F , 4°C
Humidity: 27%
Barometer: 30.00 inHg , 1015.9 hPa
Clouds: Clear
Visibility: 10 miles , 16 km
2019/03/18 18:58 KRIV 181858Z AUTO 00000KT 10SM CLR 24/04 A3000 RMK AO2 SLP153 T02380042
 
KTRM - Thermal/Palm Spg, California, USA
Distance from station: NE 75mi, 121km
Updated: 03/18/2019 11:52am
Clear
Clear
 Wind from SSE
Wind: SSE 7 mph , 11 km/h
Temperature: 88°F , 31°C
Dew Point: 34°F , 1°C
Humidity: 15%
Barometer: 29.94 inHg , 1013.9 hPa
Clouds: Clear
Visibility: 10 miles , 16 km
2019/03/18 18:52 KTRM 181852Z AUTO 16006KT 10SM CLR 31/01 A2994 RMK AO2 SLP141 T03060006
KPSP - Palm Springs, California, USA
Distance from station: NNE 76mi, 122km
Updated: 03/18/2019 11:53am
Clear
Clear
 Wind from ESE
Wind: ESE 7 mph , 11 km/h
Temperature: 82°F , 28°C
Dew Point: 34°F , 1°C
Humidity: 17%
Barometer: 29.99 inHg , 1015.6 hPa
Clouds: Clear
Visibility: 10 miles , 16 km
2019/03/18 18:53 KPSP 181853Z 12006KT 10SM CLR 28/01 A2999 RMK AO2 SLP152 T02830006
 
KSNA - Costa Mesa, California, USA
Distance from station: NW 76mi, 123km
Updated: 03/18/2019 11:53am
Few Clouds
Few Clouds
 Wind from SSW
Wind: SSW 7 mph , 11 km/h
Temperature: 72°F , 22°C
Dew Point: 46°F , 8°C
Humidity: 41%
Barometer: 29.99 inHg , 1015.6 hPa
Clouds: Few Clouds
Visibility: 10 miles , 16 km
Cloud details: Few Clouds 5000 ft
2019/03/18 18:53 KSNA 181853Z 20006KT 10SM FEW050 22/08 A2999 RMK AO2 SLP155 T02220078
KNJK - El Centro Naf, California, USA
Distance from station: E 79mi, 127km
Updated: 03/18/2019 11:56am
Clear
Clear
 Wind from SSE
Wind: SSE 8 mph , 13 km/h
Temperature: 82°F , 28°C
Dew Point: 37°F , 3°C
Humidity: 20%
Barometer: 29.98 inHg , 1015.2 hPa
Clouds: Clear
Visibility: 10 miles , 16 km
2019/03/18 18:56 KNJK 181856Z 15007KT 10SM CLR 28/03 A2998 RMK AO2 SLP166 T02780033
 
KAJO - Corona Muni, California, USA
Distance from station: NNW 82mi, 132km
Updated: 03/18/2019 11:56am
Clear
Clear
 Wind from W
Wind: W 7 mph , 11 km/h
Temperature: 73°F , 23°C
Dew Point: 50°F , 10°C
Humidity: 44%
Barometer: 29.99 inHg , 1015.6 hPa
Clouds: Clear
Visibility: 10 miles , 16 km
2019/03/18 18:56 KAJO 181856Z AUTO 26006KT 10SM CLR 23/10 A2999 RMK AO2 SLP163 T02330100